Terminal Aerodrome Forecast
Issued by NWS Sterling, VA

Home | Current Version | Previous Version | Text Only | Print | Product List | Glossary On
Versions: 1 2 3 4 5 6 7 8 9 10 11 12 13 14 15 16 17 18 19 20 21
000
FTUS41 KLWX 152300
TAFBWI
TAF
KBWI 152338Z 1600/1706 13003KT P6SM FEW050 BKN250
     FM161300 33007KT P6SM BKN050
     FM161600 33011G19KT P6SM SCT050
     FM162200 33006KT P6SM FEW050
     FM170300 00000KT P6SM SKC=

USA.gov is the U.S. government's official web portal to all federal, state and local government web resources and services.